sensor_id;sensor_type;location;lat;lon;timestamp;pressure;altitude;pressure_sealevel;temperature;humidity
57068;BME280;43391;47.448;18.904;2023-10-09T00:02:02;100694.78;;;8.20;72.98
57068;BME280;43391;47.448;18.904;2023-10-09T00:04:31;100690.47;;;8.20;72.55
57068;BME280;43391;47.448;18.904;2023-10-09T00:06:56;100692.16;;;8.21;72.11
57068;BME280;43391;47.448;18.904;2023-10-09T00:09:24;100685.16;;;8.25;72.06
57068;BME280;43391;47.448;18.904;2023-10-09T00:11:50;100689.38;;;8.31;70.50
57068;BME280;43391;47.448;18.904;2023-10-09T00:14:22;100689.38;;;8.31;70.29
57068;BME280;43391;47.448;18.904;2023-10-09T00:16:47;100678.06;;;8.35;71.38
57068;BME280;43391;47.448;18.904;2023-10-09T00:19:21;100685.00;;;8.33;71.00
57068;BME280;43391;47.448;18.904;2023-10-09T00:21:51;100686.69;;;8.34;71.87
57068;BME280;43391;47.448;18.904;2023-10-09T00:24:20;100676.34;;;8.34;73.49
57068;BME280;43391;47.448;18.904;2023-10-09T00:26:49;100676.31;;;8.35;73.00
57068;BME280;43391;47.448;18.904;2023-10-09T00:29:15;100682.28;;;8.37;70.12
57068;BME280;43391;47.448;18.904;2023-10-09T00:31:46;100680.41;;;8.44;70.13
57068;BME280;43391;47.448;18.904;2023-10-09T00:34:30;100675.25;;;8.43;71.34
57068;BME280;43391;47.448;18.904;2023-10-09T00:37:04;100671.91;;;8.39;73.09
57068;BME280;43391;47.448;18.904;2023-10-09T00:39:29;100670.81;;;8.48;72.38
57068;BME280;43391;47.448;18.904;2023-10-09T00:42:01;100676.81;;;8.50;72.57
57068;BME280;43391;47.448;18.904;2023-10-09T00:44:26;100673.38;;;8.49;73.79
57068;BME280;43391;47.448;18.904;2023-10-09T00:47:02;100669.00;;;8.53;73.89
57068;BME280;43391;47.448;18.904;2023-10-09T00:49:35;100669.88;;;8.54;74.12
57068;BME280;43391;47.448;18.904;2023-10-09T00:52:04;100661.25;;;8.53;75.26
57068;BME280;43391;47.448;18.904;2023-10-09T00:54:29;100665.59;;;8.53;75.39
57068;BME280;43391;47.448;18.904;2023-10-09T00:57:05;100669.84;;;8.55;75.59
57068;BME280;43391;47.448;18.904;2023-10-09T00:59:32;100669.81;;;8.57;74.34
57068;BME280;43391;47.448;18.904;2023-10-09T01:01:59;100677.59;;;8.55;75.57
57068;BME280;43391;47.448;18.904;2023-10-09T01:04:29;100681.00;;;8.56;74.84
57068;BME280;43391;47.448;18.904;2023-10-09T01:07:02;100676.63;;;8.59;74.88
57068;BME280;43391;47.448;18.904;2023-10-09T01:09:35;100680.06;;;8.60;73.75
57068;BME280;43391;47.448;18.904;2023-10-09T01:12:07;100665.34;;;8.62;73.45
57068;BME280;43391;47.448;18.904;2023-10-09T01:14:41;100664.53;;;8.60;74.32
57068;BME280;43391;47.448;18.904;2023-10-09T01:17:07;100663.75;;;8.56;76.03
57068;BME280;43391;47.448;18.904;2023-10-09T01:19:36;100668.94;;;8.56;74.85
57068;BME280;43391;47.448;18.904;2023-10-09T01:22:01;100677.56;;;8.57;73.73
57068;BME280;43391;47.448;18.904;2023-10-09T01:24:37;100674.88;;;8.60;73.73
57068;BME280;43391;47.448;18.904;2023-10-09T01:27:03;100675.78;;;8.59;73.96
57068;BME280;43391;47.448;18.904;2023-10-09T01:29:30;100674.97;;;8.57;73.87
57068;BME280;43391;47.448;18.904;2023-10-09T01:31:56;100684.34;;;8.61;73.89
57068;BME280;43391;47.448;18.904;2023-10-09T01:34:25;100676.53;;;8.62;73.65
57068;BME280;43391;47.448;18.904;2023-10-09T01:37:06;100682.44;;;8.68;73.32
57068;BME280;43391;47.448;18.904;2023-10-09T01:39:37;100678.34;;;8.60;74.19
57068;BME280;43391;47.448;18.904;2023-10-09T01:42:05;100678.41;;;8.57;74.41
57068;BME280;43391;47.448;18.904;2023-10-09T01:44:31;100679.28;;;8.56;75.46
57068;BME280;43391;47.448;18.904;2023-10-09T01:47:03;100681.00;;;8.56;75.35
57068;BME280;43391;47.448;18.904;2023-10-09T01:49:35;100692.22;;;8.56;74.06
57068;BME280;43391;47.448;18.904;2023-10-09T01:52:02;100685.25;;;8.58;74.71
57068;BME280;43391;47.448;18.904;2023-10-09T01:54:40;100683.56;;;8.57;74.66
57068;BME280;43391;47.448;18.904;2023-10-09T01:57:07;100696.53;;;8.56;74.99
57068;BME280;43391;47.448;18.904;2023-10-09T01:59:37;100694.69;;;8.61;75.09
57068;BME280;43391;47.448;18.904;2023-10-09T02:02:06;100704.06;;;8.67;73.74
57068;BME280;43391;47.448;18.904;2023-10-09T02:04:38;100701.44;;;8.68;74.11
57068;BME280;43391;47.448;18.904;2023-10-09T02:07:05;100703.25;;;8.64;74.26
57068;BME280;43391;47.448;18.904;2023-10-09T02:09:33;100689.47;;;8.62;74.65
57068;BME280;43391;47.448;18.904;2023-10-09T02:11:59;100688.66;;;8.62;74.97
57068;BME280;43391;47.448;18.904;2023-10-09T02:14:25;100674.84;;;8.61;75.20
57068;BME280;43391;47.448;18.904;2023-10-09T02:16:51;100678.31;;;8.62;74.99
57068;BME280;43391;47.448;18.904;2023-10-09T02:19:43;100674.84;;;8.61;75.17
57068;BME280;43391;47.448;18.904;2023-10-09T02:22:13;100660.09;;;8.65;75.24
57068;BME280;43391;47.448;18.904;2023-10-09T02:24:39;100671.22;;;8.69;75.69
57068;BME280;43391;47.448;18.904;2023-10-09T02:27:18;100662.63;;;8.68;77.48
57068;BME280;43391;47.448;18.904;2023-10-09T02:30:05;100673.78;;;8.69;76.10
57068;BME280;43391;47.448;18.904;2023-10-09T02:32:40;100668.69;;;8.67;76.39
57068;BME280;43391;47.448;18.904;2023-10-09T02:35:05;100669.59;;;8.64;79.00
57068;BME280;43391;47.448;18.904;2023-10-09T02:37:43;100649.69;;;8.67;81.45
57068;BME280;43391;47.448;18.904;2023-10-09T02:40:10;100664.38;;;8.66;84.49
57068;BME280;43391;47.448;18.904;2023-10-09T02:42:40;100661.84;;;8.64;85.79
57068;BME280;43391;47.448;18.904;2023-10-09T02:45:08;100654.94;;;8.63;86.18
57068;BME280;43391;47.448;18.904;2023-10-09T02:47:35;100644.72;;;8.59;85.89
57068;BME280;43391;47.448;18.904;2023-10-09T02:50:05;100634.56;;;8.49;87.07
57068;BME280;43391;47.448;18.904;2023-10-09T02:52:44;100628.50;;;8.50;88.39
57068;BME280;43391;47.448;18.904;2023-10-09T02:55:12;100626.84;;;8.48;90.66
57068;BME280;43391;47.448;18.904;2023-10-09T02:57:39;100637.19;;;8.48;92.00
57068;BME280;43391;47.448;18.904;2023-10-09T03:00:07;100645.75;;;8.51;91.99
57068;BME280;43391;47.448;18.904;2023-10-09T03:02:44;100642.16;;;8.57;90.68
57068;BME280;43391;47.448;18.904;2023-10-09T03:05:13;100636.25;;;8.52;91.10
57068;BME280;43391;47.448;18.904;2023-10-09T03:07:39;100644.88;;;8.51;91.39
57068;BME280;43391;47.448;18.904;2023-10-09T03:10:06;100652.78;;;8.46;92.56
57068;BME280;43391;47.448;18.904;2023-10-09T03:12:34;100638.84;;;8.52;92.22
57068;BME280;43391;47.448;18.904;2023-10-09T03:14:59;100627.63;;;8.51;91.66
57068;BME280;43391;47.448;18.904;2023-10-09T03:17:27;100623.28;;;8.54;90.94
57068;BME280;43391;47.448;18.904;2023-10-09T03:19:52;100629.25;;;8.56;88.67
57068;BME280;43391;47.448;18.904;2023-10-09T03:22:17;100630.91;;;8.58;87.94
57068;BME280;43391;47.448;18.904;2023-10-09T03:24:42;100625.53;;;8.66;87.28
57068;BME280;43391;47.448;18.904;2023-10-09T03:27:09;100616.72;;;8.75;85.91
57068;BME280;43391;47.448;18.904;2023-10-09T03:29:36;100624.47;;;8.75;84.94
57068;BME280;43391;47.448;18.904;2023-10-09T03:32:02;100608.06;;;8.76;84.47
57068;BME280;43391;47.448;18.904;2023-10-09T03:34:28;100616.84;;;8.69;83.28
57068;BME280;43391;47.448;18.904;2023-10-09T03:36:56;100626.22;;;8.74;82.13
57068;BME280;43391;47.448;18.904;2023-10-09T03:39:31;100625.31;;;8.75;79.42
57068;BME280;43391;47.448;18.904;2023-10-09T03:42:12;100637.31;;;8.78;81.22
57068;BME280;43391;47.448;18.904;2023-10-09T03:44:44;100634.69;;;8.80;82.35
57068;BME280;43391;47.448;18.904;2023-10-09T03:47:13;100626.13;;;8.77;82.36
57068;BME280;43391;47.448;18.904;2023-10-09T03:49:41;100626.25;;;8.73;82.46
57068;BME280;43391;47.448;18.904;2023-10-09T03:52:07;100628.75;;;8.76;83.77
57068;BME280;43391;47.448;18.904;2023-10-09T03:54:33;100628.59;;;8.82;84.47
57068;BME280;43391;47.448;18.904;2023-10-09T03:57:00;100627.78;;;8.80;77.94
57068;BME280;43391;47.448;18.904;2023-10-09T03:59:25;100621.03;;;8.74;78.32
57068;BME280;43391;47.448;18.904;2023-10-09T04:01:57;100614.03;;;8.78;79.76
57068;BME280;43391;47.448;18.904;2023-10-09T04:04:23;100608.81;;;8.80;77.54
57068;BME280;43391;47.448;18.904;2023-10-09T04:06:49;100614.91;;;8.77;78.87
57068;BME280;43391;47.448;18.904;2023-10-09T04:09:16;100616.41;;;8.86;79.43
57068;BME280;43391;47.448;18.904;2023-10-09T04:11:45;100626.88;;;8.83;77.76
57068;BME280;43391;47.448;18.904;2023-10-09T04:14:14;100619.97;;;8.82;78.66
57068;BME280;43391;47.448;18.904;2023-10-09T04:16:49;100613.03;;;8.84;75.94
57068;BME280;43391;47.448;18.904;2023-10-09T04:19:28;100612.81;;;8.92;76.86
57068;BME280;43391;47.448;18.904;2023-10-09T04:21:53;100619.69;;;8.93;75.02
57068;BME280;43391;47.448;18.904;2023-10-09T04:24:20;100613.66;;;8.92;72.21
57068;BME280;43391;47.448;18.904;2023-10-09T04:26:45;100601.50;;;8.96;73.43
57068;BME280;43391;47.448;18.904;2023-10-09T04:29:11;100603.97;;;8.99;72.77
57068;BME280;43391;47.448;18.904;2023-10-09T04:31:46;100601.38;;;8.99;67.05
57068;BME280;43391;47.448;18.904;2023-10-09T04:34:17;100590.22;;;8.97;68.92
57068;BME280;43391;47.448;18.904;2023-10-09T04:36:49;100588.44;;;8.99;68.95
57068;BME280;43391;47.448;18.904;2023-10-09T04:39:15;100593.78;;;8.93;67.31
57068;BME280;43391;47.448;18.904;2023-10-09T04:41:41;100593.72;;;8.96;67.98
57068;BME280;43391;47.448;18.904;2023-10-09T04:44:06;100592.00;;;8.95;69.40
57068;BME280;43391;47.448;18.904;2023-10-09T04:46:47;100578.06;;;8.99;67.92
57068;BME280;43391;47.448;18.904;2023-10-09T04:49:31;100582.56;;;8.92;67.86
57068;BME280;43391;47.448;18.904;2023-10-09T04:52:02;100585.16;;;8.92;67.30
57068;BME280;43391;47.448;18.904;2023-10-09T04:54:34;100579.03;;;8.95;68.84
57068;BME280;43391;47.448;18.904;2023-10-09T04:57:25;100577.28;;;8.97;69.55
57068;BME280;43391;47.448;18.904;2023-10-09T04:59:50;100571.06;;;9.02;67.52
57068;BME280;43391;47.448;18.904;2023-10-09T05:02:16;100564.16;;;9.03;67.20
57068;BME280;43391;47.448;18.904;2023-10-09T05:04:44;100562.50;;;9.00;67.92
57068;BME280;43391;47.448;18.904;2023-10-09T05:07:12;100555.53;;;9.02;69.93
57068;BME280;43391;47.448;18.904;2023-10-09T05:09:50;100546.00;;;9.04;69.52
57068;BME280;43391;47.448;18.904;2023-10-09T05:12:22;100552.78;;;9.09;68.31
57068;BME280;43391;47.448;18.904;2023-10-09T05:14:52;100554.50;;;9.08;68.47
57068;BME280;43391;47.448;18.904;2023-10-09T05:17:37;100556.91;;;9.14;67.08
57068;BME280;43391;47.448;18.904;2023-10-09T05:20:04;100546.72;;;9.10;65.63
57068;BME280;43391;47.448;18.904;2023-10-09T05:22:55;100540.81;;;9.04;66.34
57068;BME280;43391;47.448;18.904;2023-10-09T05:25:25;100549.47;;;9.03;65.11
57068;BME280;43391;47.448;18.904;2023-10-09T05:28:08;100555.59;;;9.01;66.05
57068;BME280;43391;47.448;18.904;2023-10-09T05:30:57;100552.06;;;9.03;66.10
57068;BME280;43391;47.448;18.904;2023-10-09T05:33:35;100533.78;;;9.08;67.09
57068;BME280;43391;47.448;18.904;2023-10-09T05:36:05;100553.47;;;9.14;67.76
57068;BME280;43391;47.448;18.904;2023-10-09T05:38:40;100560.41;;;9.13;68.77
57068;BME280;43391;47.448;18.904;2023-10-09T05:41:11;100555.22;;;9.13;69.06
57068;BME280;43391;47.448;18.904;2023-10-09T05:43:55;100578.63;;;9.10;69.64
57068;BME280;43391;47.448;18.904;2023-10-09T05:46:38;100592.22;;;9.19;68.19
57068;BME280;43391;47.448;18.904;2023-10-09T05:49:14;100602.53;;;9.20;65.04
57068;BME280;43391;47.448;18.904;2023-10-09T05:51:49;100594.84;;;9.17;67.30
57068;BME280;43391;47.448;18.904;2023-10-09T05:54:18;100579.38;;;9.14;69.18
57068;BME280;43391;47.448;18.904;2023-10-09T05:57:09;100564.50;;;9.21;66.86
57068;BME280;43391;47.448;18.904;2023-10-09T06:00:10;100560.97;;;9.23;65.51
57068;BME280;43391;47.448;18.904;2023-10-09T06:02:54;100568.78;;;9.22;64.50
57068;BME280;43391;47.448;18.904;2023-10-09T06:05:42;100557.47;;;9.24;64.74
57068;BME280;43391;47.448;18.904;2023-10-09T06:08:16;100552.06;;;9.32;65.01
57068;BME280;43391;47.448;18.904;2023-10-09T06:10:49;100548.53;;;9.35;64.33
57068;BME280;43391;47.448;18.904;2023-10-09T06:13:30;100552.94;;;9.33;62.96
57068;BME280;43391;47.448;18.904;2023-10-09T06:16:02;100536.41;;;9.37;62.53
57068;BME280;43391;47.448;18.904;2023-10-09T06:19:06;100530.47;;;9.33;62.25
57068;BME280;43391;47.448;18.904;2023-10-09T06:21:40;100532.13;;;9.36;62.29
57068;BME280;43391;47.448;18.904;2023-10-09T06:24:18;100529.63;;;9.33;61.92
57068;BME280;43391;47.448;18.904;2023-10-09T06:26:44;100530.41;;;9.35;61.69
57068;BME280;43391;47.448;18.904;2023-10-09T06:29:33;100532.69;;;9.46;62.43
57068;BME280;43391;47.448;18.904;2023-10-09T06:32:24;100528.25;;;9.49;60.88
57068;BME280;43391;47.448;18.904;2023-10-09T06:34:50;100530.09;;;9.46;60.24
57068;BME280;43391;47.448;18.904;2023-10-09T06:37:22;100535.28;;;9.46;62.24
57068;BME280;43391;47.448;18.904;2023-10-09T06:39:48;100535.94;;;9.52;62.34
57068;BME280;43391;47.448;18.904;2023-10-09T06:42:36;100534.13;;;9.54;59.84
57068;BME280;43391;47.448;18.904;2023-10-09T06:47:42;100527.25;;;9.53;58.76
57068;BME280;43391;47.448;18.904;2023-10-09T06:50:18;100533.31;;;9.54;59.65
57068;BME280;43391;47.448;18.904;2023-10-09T06:52:46;100531.41;;;9.59;58.47
57068;BME280;43391;47.448;18.904;2023-10-09T06:55:35;100530.56;;;9.59;57.95
57068;BME280;43391;47.448;18.904;2023-10-09T06:58:13;100522.69;;;9.62;57.57
57068;BME280;43391;47.448;18.904;2023-10-09T07:00:40;100519.19;;;9.63;56.01
57068;BME280;43391;47.448;18.904;2023-10-09T07:03:27;100514.97;;;9.60;55.84
57068;BME280;43391;47.448;18.904;2023-10-09T07:06:04;100513.16;;;9.62;55.92
57068;BME280;43391;47.448;18.904;2023-10-09T07:08:48;100496.63;;;9.66;56.98
57068;BME280;43391;47.448;18.904;2023-10-09T07:11:25;100493.84;;;9.71;55.22
57068;BME280;43391;47.448;18.904;2023-10-09T07:14:13;100491.97;;;9.76;55.80
57068;BME280;43391;47.448;18.904;2023-10-09T07:17:00;100502.91;;;9.86;55.43
57068;BME280;43391;47.448;18.904;2023-10-09T07:19:26;100504.34;;;9.95;56.10
57068;BME280;43391;47.448;18.904;2023-10-09T07:22:12;100495.56;;;9.99;53.96
57068;BME280;43391;47.448;18.904;2023-10-09T07:24:54;100499.88;;;9.99;52.20
57068;BME280;43391;47.448;18.904;2023-10-09T07:27:26;100493.91;;;9.96;51.98
57068;BME280;43391;47.448;18.904;2023-10-09T07:30:30;100485.22;;;9.97;53.94
57068;BME280;43391;47.448;18.904;2023-10-09T07:35:21;100457.53;;;9.98;53.46
57068;BME280;43391;47.448;18.904;2023-10-09T07:38:05;100440.13;;;10.02;52.80
57068;BME280;43391;47.448;18.904;2023-10-09T07:40:33;100425.41;;;10.02;52.87
57068;BME280;43391;47.448;18.904;2023-10-09T07:43:17;100415.84;;;10.04;53.50
57068;BME280;43391;47.448;18.904;2023-10-09T07:45:42;100406.16;;;10.09;52.37
57068;BME280;43391;47.448;18.904;2023-10-09T07:48:16;100410.38;;;10.12;51.89
57068;BME280;43391;47.448;18.904;2023-10-09T07:50:41;100399.81;;;10.17;51.60
57068;BME280;43391;47.448;18.904;2023-10-09T07:53:13;100384.16;;;10.20;51.46
57068;BME280;43391;47.448;18.904;2023-10-09T07:55:45;100391.75;;;10.24;51.57
57068;BME280;43391;47.448;18.904;2023-10-09T07:58:22;100394.25;;;10.28;49.96
57068;BME280;43391;47.448;18.904;2023-10-09T08:00:54;100385.28;;;10.36;50.96
57068;BME280;43391;47.448;18.904;2023-10-09T08:03:38;100386.00;;;10.40;50.90
57068;BME280;43391;47.448;18.904;2023-10-09T08:06:03;100380.47;;;10.51;51.46
57068;BME280;43391;47.448;18.904;2023-10-09T08:08:51;100397.19;;;10.66;49.24
57068;BME280;43391;47.448;18.904;2023-10-09T08:11:35;100395.03;;;10.77;49.89
57068;BME280;43391;47.448;18.904;2023-10-09T08:14:13;100391.53;;;10.79;48.68
57068;BME280;43391;47.448;18.904;2023-10-09T08:17:04;100383.88;;;10.75;48.32
57068;BME280;43391;47.448;18.904;2023-10-09T08:19:50;100377.88;;;10.73;47.89
57068;BME280;43391;47.448;18.904;2023-10-09T08:22:36;100358.13;;;10.69;47.63
57068;BME280;43391;47.448;18.904;2023-10-09T08:25:07;100357.16;;;10.72;46.99
57068;BME280;43391;47.448;18.904;2023-10-09T08:27:33;100362.91;;;10.80;47.17
57068;BME280;43391;47.448;18.904;2023-10-09T08:30:02;100362.84;;;10.82;45.99
57068;BME280;43391;47.448;18.904;2023-10-09T08:32:42;100359.28;;;10.84;47.33
57068;BME280;43391;47.448;18.904;2023-10-09T08:35:09;100358.19;;;10.90;47.70
57068;BME280;43391;47.448;18.904;2023-10-09T08:37:53;100346.25;;;10.86;46.52
57068;BME280;43391;47.448;18.904;2023-10-09T08:40:19;100332.66;;;10.79;45.62
57068;BME280;43391;47.448;18.904;2023-10-09T08:42:49;100341.78;;;10.89;46.89
57068;BME280;43391;47.448;18.904;2023-10-09T08:45:20;100348.03;;;11.06;47.36
57068;BME280;43391;47.448;18.904;2023-10-09T08:47:48;100343.25;;;11.18;46.13
57068;BME280;43391;47.448;18.904;2023-10-09T08:50:14;100336.34;;;11.16;45.07
57068;BME280;43391;47.448;18.904;2023-10-09T08:52:40;100336.03;;;11.24;45.23
57068;BME280;43391;47.448;18.904;2023-10-09T08:55:05;100329.44;;;11.38;46.24
57068;BME280;43391;47.448;18.904;2023-10-09T08:57:32;100334.47;;;11.62;45.05
57068;BME280;43391;47.448;18.904;2023-10-09T08:59:58;100333.06;;;11.94;45.07
57068;BME280;43391;47.448;18.904;2023-10-09T09:02:23;100337.19;;;12.19;43.76
57068;BME280;43391;47.448;18.904;2023-10-09T09:04:49;100329.25;;;12.42;43.59
57068;BME280;43391;47.448;18.904;2023-10-09T09:07:25;100325.72;;;12.62;43.20
57068;BME280;43391;47.448;18.904;2023-10-09T09:09:55;100317.63;;;12.86;42.91
57068;BME280;43391;47.448;18.904;2023-10-09T09:12:22;100300.19;;;13.06;43.17
57068;BME280;43391;47.448;18.904;2023-10-09T09:14:48;100302.41;;;13.13;41.79
57068;BME280;43391;47.448;18.904;2023-10-09T09:17:15;100300.63;;;13.14;41.17
57068;BME280;43391;47.448;18.904;2023-10-09T09:19:52;100300.34;;;13.20;41.91
57068;BME280;43391;47.448;18.904;2023-10-09T09:22:19;100306.00;;;13.28;40.60
57068;BME280;43391;47.448;18.904;2023-10-09T09:24:57;100308.78;;;13.25;42.20
57068;BME280;43391;47.448;18.904;2023-10-09T09:27:43;100306.78;;;13.48;42.25
57068;BME280;43391;47.448;18.904;2023-10-09T09:30:27;100301.13;;;13.74;41.75
57068;BME280;43391;47.448;18.904;2023-10-09T09:32:58;100292.06;;;13.97;41.76
57068;BME280;43391;47.448;18.904;2023-10-09T09:36:00;100285.84;;;14.00;40.90
57068;BME280;43391;47.448;18.904;2023-10-09T09:38:28;100286.34;;;14.06;41.20
57068;BME280;43391;47.448;18.904;2023-10-09T09:40:57;100299.59;;;14.19;40.90
57068;BME280;43391;47.448;18.904;2023-10-09T09:43:22;100307.59;;;14.32;41.47
57068;BME280;43391;47.448;18.904;2023-10-09T09:45:48;100301.19;;;14.22;39.75
57068;BME280;43391;47.448;18.904;2023-10-09T09:48:14;100295.09;;;13.89;39.82
57068;BME280;43391;47.448;18.904;2023-10-09T09:50:41;100279.75;;;13.83;41.56
57068;BME280;43391;47.448;18.904;2023-10-09T09:53:12;100288.19;;;13.88;41.21
57068;BME280;43391;47.448;18.904;2023-10-09T09:55:50;100277.81;;;13.87;41.57
57068;BME280;43391;47.448;18.904;2023-10-09T09:58:22;100278.78;;;14.02;41.53
57068;BME280;43391;47.448;18.904;2023-10-09T10:00:52;100268.94;;;14.07;40.52
57068;BME280;43391;47.448;18.904;2023-10-09T10:03:19;100268.00;;;14.08;40.89
57068;BME280;43391;47.448;18.904;2023-10-09T10:05:46;100269.84;;;14.06;40.72
57068;BME280;43391;47.448;18.904;2023-10-09T10:08:16;100259.34;;;14.24;39.99
57068;BME280;43391;47.448;18.904;2023-10-09T10:10:48;100251.31;;;14.43;40.99
57068;BME280;43391;47.448;18.904;2023-10-09T10:13:17;100231.00;;;14.48;39.90
57068;BME280;43391;47.448;18.904;2023-10-09T10:19:00;100189.34;;;14.30;40.52
57068;BME280;43391;47.448;18.904;2023-10-09T10:21:32;100198.28;;;14.26;41.58
57068;BME280;43391;47.448;18.904;2023-10-09T10:24:00;100206.84;;;14.44;41.31
57068;BME280;43391;47.448;18.904;2023-10-09T10:26:31;100190.28;;;14.60;41.10
57068;BME280;43391;47.448;18.904;2023-10-09T10:31:57;100171.78;;;14.63;41.02
57068;BME280;43391;47.448;18.904;2023-10-09T10:34:25;100165.53;;;14.66;39.55
57068;BME280;43391;47.448;18.904;2023-10-09T10:36:51;100155.81;;;14.84;40.38
57068;BME280;43391;47.448;18.904;2023-10-09T10:39:25;100161.44;;;14.92;39.28
57068;BME280;43391;47.448;18.904;2023-10-09T10:42:09;100164.44;;;15.15;39.13
57068;BME280;43391;47.448;18.904;2023-10-09T10:44:39;100143.22;;;15.34;39.48
57068;BME280;43391;47.448;18.904;2023-10-09T10:47:10;100130.69;;;15.39;38.81
57068;BME280;43391;47.448;18.904;2023-10-09T10:49:51;100136.94;;;15.51;38.74
57068;BME280;43391;47.448;18.904;2023-10-09T10:52:23;100146.13;;;15.72;39.08
57068;BME280;43391;47.448;18.904;2023-10-09T10:55:07;100133.34;;;15.67;37.41
57068;BME280;43391;47.448;18.904;2023-10-09T10:57:44;100130.34;;;15.73;37.42
57068;BME280;43391;47.448;18.904;2023-10-09T11:00:18;100144.69;;;15.95;38.35
57068;BME280;43391;47.448;18.904;2023-10-09T11:03:02;100122.31;;;16.04;37.51
57068;BME280;43391;47.448;18.904;2023-10-09T11:05:41;100124.72;;;16.34;38.93
57068;BME280;43391;47.448;18.904;2023-10-09T11:08:10;100104.84;;;16.71;37.25
57068;BME280;43391;47.448;18.904;2023-10-09T11:10:35;100075.25;;;16.82;35.90
57068;BME280;43391;47.448;18.904;2023-10-09T11:13:00;100075.56;;;16.77;36.14
57068;BME280;43391;47.448;18.904;2023-10-09T11:15:35;100109.66;;;16.64;36.59
57068;BME280;43391;47.448;18.904;2023-10-09T11:18:10;100132.91;;;16.69;36.70
57068;BME280;43391;47.448;18.904;2023-10-09T11:20:54;100106.78;;;16.80;36.65
57068;BME280;43391;47.448;18.904;2023-10-09T11:23:30;100102.72;;;16.76;36.40
57068;BME280;43391;47.448;18.904;2023-10-09T11:25:58;100093.69;;;16.28;37.29
57068;BME280;43391;47.448;18.904;2023-10-09T11:28:44;100071.56;;;15.92;37.96
57068;BME280;43391;47.448;18.904;2023-10-09T11:31:14;100091.88;;;16.16;39.83
57068;BME280;43391;47.448;18.904;2023-10-09T11:33:51;100103.13;;;16.31;38.48
57068;BME280;43391;47.448;18.904;2023-10-09T11:36:18;100098.81;;;16.56;38.48
57068;BME280;43391;47.448;18.904;2023-10-09T11:38:56;100110.34;;;16.40;39.50
57068;BME280;43391;47.448;18.904;2023-10-09T11:41:41;100116.09;;;16.32;39.24
57068;BME280;43391;47.448;18.904;2023-10-09T11:44:06;100132.34;;;16.38;39.64
57068;BME280;43391;47.448;18.904;2023-10-09T11:46:32;100135.97;;;16.22;39.47
57068;BME280;43391;47.448;18.904;2023-10-09T11:49:15;100145.31;;;15.99;40.43
57068;BME280;43391;47.448;18.904;2023-10-09T11:51:46;100125.47;;;15.81;40.43
57068;BME280;43391;47.448;18.904;2023-10-09T11:54:49;100122.69;;;15.70;41.53
57068;BME280;43391;47.448;18.904;2023-10-09T11:57:15;100106.63;;;15.62;40.61
57068;BME280;43391;47.448;18.904;2023-10-09T11:59:42;100091.56;;;15.65;42.44
57068;BME280;43391;47.448;18.904;2023-10-09T12:02:09;100089.06;;;15.64;43.04
57068;BME280;43391;47.448;18.904;2023-10-09T12:04:40;100090.56;;;15.53;41.59
57068;BME280;43391;47.448;18.904;2023-10-09T12:07:08;100080.41;;;15.49;42.32
57068;BME280;43391;47.448;18.904;2023-10-09T12:09:38;100092.09;;;15.43;42.82
57068;BME280;43391;47.448;18.904;2023-10-09T12:12:04;100084.16;;;15.45;44.92
57068;BME280;43391;47.448;18.904;2023-10-09T12:14:29;100066.25;;;15.38;45.59
57068;BME280;43391;47.448;18.904;2023-10-09T12:17:01;100055.41;;;15.30;49.81
57068;BME280;43391;47.448;18.904;2023-10-09T12:19:33;100048.22;;;15.34;45.86
57068;BME280;43391;47.448;18.904;2023-10-09T12:21:58;100036.69;;;15.23;48.17
57068;BME280;43391;47.448;18.904;2023-10-09T12:24:25;100029.88;;;15.06;50.07
57068;BME280;43391;47.448;18.904;2023-10-09T12:26:54;100041.56;;;15.00;50.38
57068;BME280;43391;47.448;18.904;2023-10-09T12:29:19;100040.09;;;14.96;51.46
57068;BME280;43391;47.448;18.904;2023-10-09T12:31:45;100045.50;;;14.93;51.76
57068;BME280;43391;47.448;18.904;2023-10-09T12:34:10;100026.34;;;14.93;53.10
57068;BME280;43391;47.448;18.904;2023-10-09T12:36:41;100018.78;;;14.88;56.96
57068;BME280;43391;47.448;18.904;2023-10-09T12:39:08;100003.22;;;14.86;55.27
57068;BME280;43391;47.448;18.904;2023-10-09T12:41:42;100013.09;;;14.96;56.57
57068;BME280;43391;47.448;18.904;2023-10-09T12:44:07;100016.09;;;15.04;56.22
57068;BME280;43391;47.448;18.904;2023-10-09T12:46:39;100022.22;;;15.03;56.31
57068;BME280;43391;47.448;18.904;2023-10-09T12:49:05;100040.44;;;15.05;58.75
57068;BME280;43391;47.448;18.904;2023-10-09T12:51:30;100027.28;;;15.06;59.81
57068;BME280;43391;47.448;18.904;2023-10-09T12:53:56;100026.25;;;15.09;60.02
57068;BME280;43391;47.448;18.904;2023-10-09T12:56:26;100018.56;;;15.06;56.77
57068;BME280;43391;47.448;18.904;2023-10-09T12:59:01;100017.53;;;15.08;56.39
57068;BME280;43391;47.448;18.904;2023-10-09T13:01:29;100004.94;;;15.15;58.11
57068;BME280;43391;47.448;18.904;2023-10-09T13:03:59;99996.81;;;15.20;55.92
57068;BME280;43391;47.448;18.904;2023-10-09T13:06:25;99996.00;;;15.05;55.67
57068;BME280;43391;47.448;18.904;2023-10-09T13:08:50;100011.88;;;15.01;57.28
57068;BME280;43391;47.448;18.904;2023-10-09T13:11:16;100014.50;;;15.01;62.36
57068;BME280;43391;47.448;18.904;2023-10-09T13:13:42;99993.69;;;15.00;63.83
57068;BME280;43391;47.448;18.904;2023-10-09T13:16:18;99996.56;;;14.95;59.58
57068;BME280;43391;47.448;18.904;2023-10-09T13:18:53;99989.09;;;14.89;62.08
57068;BME280;43391;47.448;18.904;2023-10-09T13:21:19;100000.41;;;14.90;62.28
57068;BME280;43391;47.448;18.904;2023-10-09T13:23:44;99994.63;;;14.84;61.50